createdAt,value
2022-10-12T00:02:17.640Z,3.88
2022-10-12T00:04:44.418Z,3.00
2022-10-12T00:07:11.130Z,5.68
2022-10-12T00:09:37.893Z,3.72
2022-10-12T00:12:04.717Z,3.70
2022-10-12T00:14:31.418Z,4.22
2022-10-12T00:16:58.239Z,3.15
2022-10-12T00:19:24.952Z,2.97
2022-10-12T00:21:51.656Z,4.20
2022-10-12T00:24:18.544Z,5.32
2022-10-12T00:26:45.263Z,3.33
2022-10-12T00:29:11.999Z,6.43
2022-10-12T00:31:38.908Z,2.65
2022-10-12T00:34:05.666Z,3.22
2022-10-12T00:36:35.938Z,3.35
2022-10-12T00:39:04.575Z,3.05
2022-10-12T00:41:33.889Z,4.60
2022-10-12T00:44:00.604Z,3.75
2022-10-12T00:46:37.872Z,4.22
2022-10-12T00:49:15.031Z,3.58
2022-10-12T00:51:42.167Z,3.42
2022-10-12T00:54:16.489Z,3.63
2022-10-12T00:56:43.655Z,5.28
2022-10-12T00:59:12.605Z,5.18
2022-10-12T01:01:39.410Z,4.97
2022-10-12T01:04:06.185Z,3.85
2022-10-12T01:06:33.146Z,3.65
2022-10-12T01:08:59.849Z,3.33
2022-10-12T01:11:26.605Z,3.70
2022-10-12T01:13:53.371Z,6.00
2022-10-12T01:16:29.609Z,4.45
2022-10-12T01:19:24.413Z,6.80
2022-10-12T01:21:57.302Z,4.40
2022-10-12T01:24:26.816Z,4.55
2022-10-12T01:27:11.666Z,4.85
2022-10-12T01:30:01.436Z,5.18
2022-10-12T01:32:37.448Z,3.38
2022-10-12T01:35:36.374Z,4.70
2022-10-12T01:38:24.583Z,5.18
2022-10-12T01:40:55.271Z,4.78
2022-10-12T01:43:23.566Z,5.40
2022-10-12T01:45:50.440Z,5.13
2022-10-12T01:48:17.168Z,4.75
2022-10-12T01:50:51.596Z,3.83
2022-10-12T01:53:25.948Z,3.40
2022-10-12T01:55:57.575Z,3.45
2022-10-12T01:58:51.628Z,3.33
2022-10-12T02:01:33.435Z,2.70
2022-10-12T02:04:07.314Z,3.78
2022-10-12T02:06:40.171Z,5.03
2022-10-12T02:09:26.628Z,6.85
2022-10-12T02:11:55.005Z,3.65
2022-10-12T02:14:22.995Z,2.83
2022-10-12T02:16:59.936Z,3.72
2022-10-12T02:19:28.553Z,4.20
2022-10-12T02:21:57.160Z,5.53
2022-10-12T02:24:24.124Z,3.42
2022-10-12T02:26:52.260Z,4.28
2022-10-12T02:29:22.116Z,3.28
2022-10-12T02:32:26.180Z,5.28
2022-10-12T02:35:02.875Z,3.90
2022-10-12T02:37:40.219Z,2.63
2022-10-12T02:40:15.586Z,4.35
2022-10-12T02:43:08.754Z,3.50
2022-10-12T02:45:33.393Z,3.50
2022-10-12T02:48:00.174Z,5.68
2022-10-12T02:50:27.000Z,3.63
2022-10-12T02:52:53.757Z,3.58
2022-10-12T02:55:20.489Z,8.02
2022-10-12T02:57:47.460Z,4.93
2022-10-12T03:00:14.732Z,3.33
2022-10-12T03:02:41.454Z,4.10
2022-10-12T03:05:08.220Z,5.43
2022-10-12T03:07:35.114Z,3.75
2022-10-12T03:10:02.034Z,4.97
2022-10-12T03:12:28.757Z,5.00
2022-10-12T03:14:55.469Z,3.22
2022-10-12T03:17:22.170Z,3.92
2022-10-12T03:19:48.874Z,5.30
2022-10-12T03:22:15.633Z,4.20
2022-10-12T03:24:42.346Z,5.25
2022-10-12T03:27:09.051Z,3.67
2022-10-12T03:29:35.789Z,4.40
2022-10-12T03:32:02.487Z,5.82
2022-10-12T03:34:29.193Z,5.32
2022-10-12T03:36:55.888Z,4.70
2022-10-12T03:39:22.742Z,4.47
2022-10-12T03:41:49.493Z,4.60
2022-10-12T03:44:16.202Z,3.95
2022-10-12T03:46:42.906Z,4.70
2022-10-12T03:49:09.612Z,5.00
2022-10-12T03:51:36.311Z,4.80
2022-10-12T03:54:03.042Z,4.22
2022-10-12T03:56:29.753Z,3.95
2022-10-12T03:58:56.444Z,3.88
2022-10-12T04:01:23.206Z,3.97
2022-10-12T04:03:49.952Z,5.60
2022-10-12T04:06:16.708Z,4.90
2022-10-12T04:08:46.003Z,4.43
2022-10-12T04:11:16.946Z,2.90
2022-10-12T04:13:44.038Z,3.42
2022-10-12T04:16:10.788Z,4.45
2022-10-12T04:18:37.571Z,4.88
2022-10-12T04:21:05.166Z,4.07
2022-10-12T04:23:31.899Z,6.03
2022-10-12T04:25:58.617Z,4.97
2022-10-12T04:28:25.395Z,4.68
2022-10-12T04:30:52.195Z,4.72
2022-10-12T04:33:18.917Z,3.42
2022-10-12T04:35:45.640Z,3.40
2022-10-12T04:38:13.192Z,4.03
2022-10-12T04:40:39.922Z,3.80
2022-10-12T04:43:06.630Z,6.07
2022-10-12T04:45:33.325Z,4.20
2022-10-12T04:48:00.060Z,4.90
2022-10-12T04:50:30.047Z,5.22
2022-10-12T04:52:57.062Z,3.85
2022-10-12T04:55:23.773Z,3.20
2022-10-12T04:57:50.465Z,4.10
2022-10-12T05:00:17.504Z,3.72
2022-10-12T05:02:44.239Z,2.83
2022-10-12T05:05:10.944Z,5.15
2022-10-12T05:07:37.916Z,4.43
2022-10-12T05:10:05.534Z,3.72
2022-10-12T05:12:32.249Z,3.00
2022-10-12T05:14:58.947Z,3.70
2022-10-12T05:17:25.680Z,4.47
2022-10-12T05:19:52.395Z,4.25
2022-10-12T05:22:19.175Z,3.83
2022-10-12T05:24:50.068Z,3.85
2022-10-12T05:27:19.680Z,3.47
2022-10-12T05:29:46.408Z,4.05
2022-10-12T05:32:13.131Z,4.82
2022-10-12T05:34:39.868Z,2.72
2022-10-12T05:37:06.564Z,3.88
2022-10-12T05:39:33.273Z,3.30
2022-10-12T05:41:59.988Z,3.22
2022-10-12T05:44:26.732Z,6.68
2022-10-12T05:46:53.471Z,4.15
2022-10-12T05:49:20.220Z,2.80
2022-10-12T05:51:46.969Z,4.85
2022-10-12T05:54:13.691Z,3.58
2022-10-12T05:56:40.451Z,4.40
2022-10-12T05:59:07.205Z,5.93
2022-10-12T06:01:33.976Z,3.38
2022-10-12T06:04:00.732Z,2.97
2022-10-12T06:06:27.468Z,3.55
2022-10-12T06:08:54.376Z,5.63
2022-10-12T06:11:21.259Z,2.88
2022-10-12T06:13:48.032Z,4.35
2022-10-12T06:16:14.760Z,3.85
2022-10-12T06:18:41.499Z,5.10
2022-10-12T06:21:32.008Z,6.78
2022-10-12T06:23:54.932Z,2.63
2022-10-12T06:26:21.679Z,3.00
2022-10-12T06:28:48.402Z,4.78
2022-10-12T06:31:15.186Z,3.92
2022-10-12T06:33:41.966Z,5.75
2022-10-12T06:36:09.027Z,2.90
2022-10-12T06:38:35.789Z,4.50
2022-10-12T06:41:02.664Z,4.07
2022-10-12T06:43:29.487Z,4.25
2022-10-12T06:46:00.790Z,4.80
2022-10-12T06:48:27.888Z,3.65
2022-10-12T06:50:54.912Z,4.32
2022-10-12T06:53:22.631Z,3.92
2022-10-12T06:55:49.571Z,5.57
2022-10-12T06:58:16.426Z,5.78
2022-10-12T07:00:43.241Z,7.22
2022-10-12T07:03:14.421Z,6.57
2022-10-12T07:05:41.232Z,6.20
2022-10-12T07:08:08.360Z,5.82
2022-10-12T07:10:35.201Z,4.78
2022-10-12T07:13:02.014Z,5.10
2022-10-12T07:15:28.839Z,5.53
2022-10-12T07:17:55.696Z,6.07
2022-10-12T07:20:22.625Z,5.63
2022-10-12T07:22:49.359Z,6.63
2022-10-12T07:25:16.224Z,5.65
2022-10-12T07:27:43.130Z,4.95
2022-10-12T07:30:10.897Z,5.25
2022-10-12T07:32:37.756Z,6.82
2022-10-12T07:35:05.107Z,4.97
2022-10-12T07:37:31.923Z,6.18
2022-10-12T07:39:58.777Z,6.38
2022-10-12T07:42:25.650Z,7.85
2022-10-12T07:44:52.569Z,5.20
2022-10-12T07:47:19.449Z,5.72
2022-10-12T07:49:46.452Z,5.07
2022-10-12T07:52:13.286Z,10.45
2022-10-12T07:54:40.157Z,7.18
2022-10-12T07:57:07.078Z,5.60
2022-10-12T07:59:33.801Z,6.68
2022-10-12T08:02:00.784Z,6.07
2022-10-12T08:04:27.837Z,8.80
2022-10-12T08:06:55.542Z,8.30
2022-10-12T08:09:22.403Z,6.88
2022-10-12T08:11:49.269Z,6.65
2022-10-12T08:14:17.484Z,6.82
2022-10-12T08:16:44.635Z,6.25
2022-10-12T08:19:11.625Z,6.47
2022-10-12T08:21:38.658Z,7.88
2022-10-12T08:24:05.864Z,8.32
2022-10-12T08:26:33.325Z,8.05
2022-10-12T08:29:02.022Z,6.85
2022-10-12T08:31:28.869Z,7.97
2022-10-12T08:33:57.527Z,7.20
2022-10-12T08:36:24.624Z,8.57
2022-10-12T08:38:56.010Z,12.23
2022-10-12T08:41:47.012Z,9.05
2022-10-12T08:44:37.739Z,9.93
2022-10-12T08:47:12.901Z,9.50
2022-10-12T08:49:40.344Z,7.38
2022-10-12T08:52:21.492Z,7.72
2022-10-12T08:54:48.478Z,10.85
2022-10-12T08:57:19.069Z,7.82
2022-10-12T08:59:46.406Z,7.65
2022-10-12T09:02:36.123Z,13.57
2022-10-12T09:05:11.063Z,10.50
2022-10-12T09:07:46.397Z,9.63
2022-10-12T09:10:53.390Z,10.80
2022-10-12T09:13:52.939Z,9.07
2022-10-12T09:16:20.003Z,16.75
2022-10-12T09:18:48.790Z,13.23
2022-10-12T09:21:20.434Z,9.93
2022-10-12T09:23:47.324Z,14.18
2022-10-12T09:26:17.856Z,11.48
2022-10-12T09:28:57.632Z,9.60
2022-10-12T09:31:49.144Z,12.43
2022-10-12T09:34:19.196Z,10.80
2022-10-12T09:36:46.599Z,13.48
2022-10-12T09:39:17.149Z,10.77
2022-10-12T09:41:45.231Z,8.93
2022-10-12T09:44:37.736Z,9.15
2022-10-12T09:47:06.381Z,12.90
2022-10-12T09:49:46.679Z,9.60
2022-10-12T09:52:14.253Z,13.65
2022-10-12T09:54:49.429Z,9.63
2022-10-12T09:57:28.479Z,10.73
2022-10-12T09:59:55.260Z,7.95
2022-10-12T10:02:24.296Z,13.20
2022-10-12T10:04:51.834Z,10.95
2022-10-12T10:07:30.445Z,11.93
2022-10-12T10:10:12.368Z,13.00
2022-10-12T10:13:01.625Z,11.43
2022-10-12T10:15:29.940Z,10.30
2022-10-12T10:18:01.967Z,10.63
2022-10-12T10:20:51.306Z,10.25
2022-10-12T10:23:38.852Z,7.68
2022-10-12T10:26:06.645Z,7.45
2022-10-12T10:28:34.946Z,8.05
2022-10-12T10:31:04.177Z,9.63
2022-10-12T10:33:32.065Z,8.98
2022-10-12T10:36:03.006Z,8.50
2022-10-12T10:38:52.015Z,11.00
2022-10-12T10:41:18.826Z,10.82
2022-10-12T10:43:48.698Z,11.20
2022-10-12T10:46:15.893Z,11.65
2022-10-12T10:48:56.298Z,16.00
2022-10-12T10:51:23.071Z,13.40
2022-10-12T10:53:50.288Z,15.82
2022-10-12T10:56:24.676Z,15.23
2022-10-12T10:59:00.012Z,13.77
2022-10-12T11:01:37.178Z,15.57
2022-10-12T11:04:09.404Z,17.73
2022-10-12T11:06:41.439Z,14.73
2022-10-12T11:09:19.447Z,15.35
2022-10-12T11:11:47.884Z,16.40
2022-10-12T11:14:16.683Z,16.95
2022-10-12T11:16:51.570Z,15.70
2022-10-12T11:19:27.137Z,16.45
2022-10-12T11:22:26.749Z,18.55
2022-10-12T11:25:04.265Z,14.68
2022-10-12T11:27:41.200Z,13.20
2022-10-12T11:30:28.310Z,12.23
2022-10-12T11:33:05.654Z,11.50
2022-10-12T11:35:37.971Z,12.93
2022-10-12T11:38:17.047Z,16.13
2022-10-12T11:41:19.163Z,16.33
2022-10-12T11:44:12.207Z,11.85
2022-10-12T11:47:01.321Z,13.48
2022-10-12T11:49:55.347Z,14.57
2022-10-12T11:52:25.112Z,16.25
2022-10-12T11:55:10.896Z,9.40
2022-10-12T11:57:38.119Z,11.07
2022-10-12T12:00:25.395Z,9.57
2022-10-12T12:02:58.469Z,11.30
2022-10-12T12:05:30.895Z,13.48
2022-10-12T12:07:57.823Z,10.05
2022-10-12T12:10:27.911Z,14.55
2022-10-12T12:13:18.320Z,13.18
2022-10-12T12:15:48.143Z,10.20
2022-10-12T12:18:22.460Z,13.25
2022-10-12T12:20:49.197Z,10.15
2022-10-12T12:23:25.587Z,16.27
2022-10-12T12:26:15.589Z,11.98
2022-10-12T12:28:43.513Z,9.50
2022-10-12T12:31:22.886Z,13.38
2022-10-12T12:33:52.073Z,9.48
2022-10-12T12:36:38.895Z,8.43
2022-10-12T12:39:07.059Z,11.20
2022-10-12T12:41:55.059Z,9.90
2022-10-12T12:44:38.213Z,12.40
2022-10-12T12:47:26.051Z,9.75
2022-10-12T12:49:55.374Z,11.65
2022-10-12T12:52:24.809Z,10.68
2022-10-12T12:55:14.716Z,11.32
2022-10-12T12:58:05.858Z,10.30
2022-10-12T13:00:54.100Z,11.93
2022-10-12T13:03:26.670Z,12.52
2022-10-12T13:06:20.963Z,9.18
2022-10-12T13:09:35.656Z,11.73
2022-10-12T13:12:25.380Z,8.65
2022-10-12T13:15:20.294Z,11.77
2022-10-12T13:18:28.408Z,12.30
2022-10-12T13:20:58.869Z,11.35
2022-10-12T13:23:26.586Z,9.20
2022-10-12T13:26:15.807Z,11.35
2022-10-12T13:28:43.544Z,10.50
2022-10-12T13:31:38.569Z,14.25
2022-10-12T13:34:49.858Z,15.15
2022-10-12T13:37:18.141Z,12.95
2022-10-12T13:39:47.069Z,12.75
2022-10-12T13:42:17.827Z,11.02
2022-10-12T13:44:44.956Z,8.88
2022-10-12T13:47:31.531Z,8.23
2022-10-12T13:49:58.707Z,8.82
2022-10-12T13:52:32.112Z,10.27
2022-10-12T13:54:59.778Z,10.55
2022-10-12T13:57:39.257Z,8.93
2022-10-12T14:00:20.318Z,14.48
2022-10-12T14:03:07.336Z,8.80
2022-10-12T14:05:34.121Z,7.97
2022-10-12T14:08:07.184Z,8.05
2022-10-12T14:10:37.923Z,6.43
2022-10-12T14:13:05.124Z,8.82
2022-10-12T14:15:36.504Z,11.05
2022-10-12T14:18:04.010Z,8.88
2022-10-12T14:20:37.253Z,10.25
2022-10-12T14:23:12.930Z,8.27
2022-10-12T14:25:42.816Z,6.03
2022-10-12T14:28:21.837Z,7.15
2022-10-12T14:30:52.589Z,6.93
2022-10-12T14:33:19.595Z,10.00
2022-10-12T14:35:48.163Z,6.88
2022-10-12T14:38:40.752Z,7.47
2022-10-12T14:41:42.973Z,9.85
2022-10-12T14:44:11.045Z,8.75
2022-10-12T14:46:43.316Z,6.88
2022-10-12T14:49:21.758Z,6.80
2022-10-12T14:51:48.780Z,6.15
2022-10-12T14:54:15.727Z,9.60
2022-10-12T14:56:42.768Z,7.60
2022-10-12T14:59:09.771Z,5.72
2022-10-12T15:01:40.948Z,6.43
2022-10-12T15:04:13.377Z,9.63
2022-10-12T15:06:40.611Z,8.15
2022-10-12T15:09:07.412Z,8.65
2022-10-12T15:11:34.229Z,6.93
2022-10-12T15:14:00.948Z,6.55
2022-10-12T15:16:28.380Z,8.57
2022-10-12T15:18:55.389Z,7.75
2022-10-12T15:21:22.244Z,5.90
2022-10-12T15:23:48.999Z,4.85
2022-10-12T15:26:16.998Z,7.15
2022-10-12T15:28:44.356Z,8.80
2022-10-12T15:31:17.368Z,6.72
2022-10-12T15:33:45.249Z,8.57
2022-10-12T15:36:12.487Z,11.85
2022-10-12T15:38:39.427Z,9.70
2022-10-12T15:41:06.220Z,8.48
2022-10-12T15:43:35.634Z,7.65
2022-10-12T15:46:05.183Z,8.38
2022-10-12T15:48:32.272Z,13.07
2022-10-12T15:50:59.042Z,6.43
2022-10-12T15:53:26.519Z,11.98
2022-10-12T15:55:53.957Z,9.20
2022-10-12T15:58:20.916Z,9.60
2022-10-12T16:00:47.866Z,12.02
2022-10-12T16:03:25.280Z,9.50
2022-10-12T16:05:52.928Z,9.20
2022-10-12T16:08:19.898Z,30.33
2022-10-12T16:10:47.982Z,15.57
2022-10-12T16:13:14.928Z,13.63
2022-10-12T16:15:42.083Z,11.60
2022-10-12T16:18:09.398Z,11.75
2022-10-12T16:20:37.582Z,11.43
2022-10-12T16:23:05.676Z,7.90
2022-10-12T16:25:32.642Z,7.95
2022-10-12T16:27:59.491Z,10.10
2022-10-12T16:30:26.614Z,8.35
2022-10-12T16:32:54.417Z,15.27
2022-10-12T16:35:21.296Z,9.10
2022-10-12T16:37:48.129Z,9.93
2022-10-12T16:40:15.754Z,7.47
2022-10-12T16:42:42.802Z,7.57
2022-10-12T16:45:10.210Z,13.10
2022-10-12T16:47:42.859Z,10.02
2022-10-12T16:50:10.398Z,8.35
2022-10-12T16:52:37.116Z,7.50
2022-10-12T16:55:04.490Z,10.32
2022-10-12T16:57:31.576Z,11.73
2022-10-12T16:59:58.822Z,8.55
2022-10-12T17:02:27.455Z,7.00
2022-10-12T17:04:54.363Z,7.63
2022-10-12T17:07:21.275Z,10.38
2022-10-12T17:09:48.189Z,7.18
2022-10-12T17:12:15.424Z,9.10
2022-10-12T17:14:42.549Z,11.90
2022-10-12T17:17:09.526Z,9.05
2022-10-12T17:19:40.748Z,10.02
2022-10-12T17:22:09.199Z,31.92
2022-10-12T17:24:36.749Z,10.90
2022-10-12T17:27:04.338Z,12.15
2022-10-12T17:29:31.288Z,12.27
2022-10-12T17:31:58.084Z,12.05
2022-10-12T17:34:29.757Z,6.78
2022-10-12T17:36:57.209Z,8.13
2022-10-12T17:39:24.389Z,6.97
2022-10-12T17:41:51.134Z,7.32
2022-10-12T17:44:18.008Z,11.60
2022-10-12T17:46:45.048Z,7.30
2022-10-12T17:49:13.084Z,8.43
2022-10-12T17:51:40.127Z,8.88
2022-10-12T17:54:06.898Z,6.03
2022-10-12T17:56:33.640Z,8.48
2022-10-12T17:59:01.499Z,7.80
2022-10-12T18:01:28.612Z,5.93
2022-10-12T18:03:55.545Z,6.25
2022-10-12T18:06:23.253Z,6.00
2022-10-12T18:08:50.891Z,6.53
2022-10-12T18:11:18.568Z,7.38
2022-10-12T18:13:49.508Z,9.77
2022-10-12T18:16:18.411Z,13.90
2022-10-12T18:18:45.302Z,9.25
2022-10-12T18:21:13.567Z,8.65
2022-10-12T18:23:40.723Z,10.27
2022-10-12T18:26:08.280Z,10.57
2022-10-12T18:28:35.116Z,11.45
2022-10-12T18:31:01.919Z,9.88
2022-10-12T18:33:28.909Z,10.23
2022-10-12T18:35:55.780Z,9.38
2022-10-12T18:38:22.589Z,7.32
2022-10-12T18:40:49.412Z,7.80
2022-10-12T18:43:16.392Z,11.93
2022-10-12T18:45:43.730Z,10.18
2022-10-12T18:48:11.641Z,10.00
2022-10-12T18:50:38.607Z,10.60
2022-10-12T18:53:05.567Z,7.68
2022-10-12T18:55:35.611Z,9.48
2022-10-12T18:58:02.537Z,10.25
2022-10-12T19:00:29.423Z,10.98
2022-10-12T19:02:56.330Z,8.50
2022-10-12T19:05:23.944Z,6.57
2022-10-12T19:07:50.752Z,10.20
2022-10-12T19:10:17.558Z,7.80
2022-10-12T19:12:45.870Z,7.82
2022-10-12T19:15:12.923Z,9.95
2022-10-12T19:17:39.732Z,9.52
2022-10-12T19:20:07.268Z,7.70
2022-10-12T19:22:34.096Z,9.40
2022-10-12T19:25:01.854Z,9.15
2022-10-12T19:27:29.677Z,7.03
2022-10-12T19:29:56.993Z,8.52
2022-10-12T19:32:23.920Z,8.52
2022-10-12T19:34:51.967Z,8.23
2022-10-12T19:37:18.719Z,5.10
2022-10-12T19:39:47.222Z,6.65
2022-10-12T19:42:13.920Z,6.47
2022-10-12T19:44:40.784Z,6.88
2022-10-12T19:47:07.692Z,6.07
2022-10-12T19:49:36.921Z,7.10
2022-10-12T19:52:05.398Z,7.35
2022-10-12T19:54:36.062Z,6.95
2022-10-12T19:57:03.015Z,6.07
2022-10-12T19:59:29.737Z,6.60
2022-10-12T20:01:56.438Z,5.75
2022-10-12T20:04:24.161Z,5.05
2022-10-12T20:06:50.910Z,6.53
2022-10-12T20:09:17.716Z,5.35
2022-10-12T20:11:44.476Z,7.07
2022-10-12T20:14:11.336Z,4.13
2022-10-12T20:16:38.152Z,7.40
2022-10-12T20:19:05.250Z,4.80
2022-10-12T20:21:32.145Z,13.52
2022-10-12T20:23:58.902Z,8.10
2022-10-12T20:26:25.927Z,5.80
2022-10-12T20:28:53.200Z,6.82
2022-10-12T20:31:23.253Z,6.53
2022-10-12T20:33:52.078Z,4.03
2022-10-12T20:36:26.714Z,4.18
2022-10-12T20:38:53.718Z,6.25
2022-10-12T20:41:21.815Z,5.68
2022-10-12T20:43:48.548Z,8.30
2022-10-12T20:46:16.738Z,4.75
2022-10-12T20:48:44.451Z,5.40
2022-10-12T20:51:20.636Z,6.00
2022-10-12T20:53:47.490Z,6.55
2022-10-12T20:56:14.222Z,5.50
2022-10-12T20:58:41.134Z,6.65
2022-10-12T21:01:09.588Z,6.40
2022-10-12T21:03:36.599Z,5.32
2022-10-12T21:06:08.093Z,5.78
2022-10-12T21:08:35.610Z,4.55
2022-10-12T21:11:02.718Z,5.90
2022-10-12T21:13:33.700Z,4.13
2022-10-12T21:16:00.469Z,3.80
2022-10-12T21:18:27.303Z,6.10
2022-10-12T21:20:58.491Z,9.82
2022-10-12T21:23:25.193Z,5.30
2022-10-12T21:25:53.919Z,4.68
2022-10-12T21:28:21.199Z,6.25
2022-10-12T21:30:48.191Z,3.70
2022-10-12T21:33:15.854Z,4.28
2022-10-12T21:35:42.628Z,6.90
2022-10-12T21:38:09.418Z,5.60
2022-10-12T21:40:36.190Z,6.47
2022-10-12T21:43:02.899Z,10.10
2022-10-12T21:45:29.622Z,3.90
2022-10-12T21:47:56.334Z,5.45
2022-10-12T21:50:23.057Z,5.03
2022-10-12T21:52:50.217Z,3.42
2022-10-12T21:55:17.105Z,5.13
2022-10-12T21:57:43.833Z,4.07
2022-10-12T22:00:11.301Z,3.88
2022-10-12T22:02:38.038Z,5.90
2022-10-12T22:05:05.095Z,5.40
2022-10-12T22:07:37.476Z,3.67
2022-10-12T22:10:05.022Z,5.57
2022-10-12T22:12:31.761Z,5.32
2022-10-12T22:14:58.484Z,4.40
2022-10-12T22:17:25.288Z,3.50
2022-10-12T22:19:52.057Z,4.10
2022-10-12T22:22:19.100Z,4.88
2022-10-12T22:24:46.262Z,4.30
2022-10-12T22:27:12.966Z,4.68
2022-10-12T22:29:39.809Z,5.60
2022-10-12T22:32:06.540Z,4.45
2022-10-12T22:34:33.257Z,5.55
2022-10-12T22:37:00.049Z,4.45
2022-10-12T22:39:26.809Z,4.72
2022-10-12T22:41:53.588Z,5.53
2022-10-12T22:44:20.326Z,5.70
2022-10-12T22:46:47.044Z,3.60
2022-10-12T22:49:13.751Z,4.57
2022-10-12T22:51:40.533Z,5.43
2022-10-12T22:56:52.050Z,4.68
2022-10-12T22:59:18.775Z,8.93
2022-10-12T23:01:45.531Z,6.07
2022-10-12T23:04:12.294Z,5.32
2022-10-12T23:06:39.002Z,3.97
2022-10-12T23:09:05.776Z,5.20
2022-10-12T23:11:32.674Z,4.90
2022-10-12T23:13:59.424Z,5.93
2022-10-12T23:16:28.325Z,7.03
2022-10-12T23:18:59.778Z,4.60
2022-10-12T23:21:27.270Z,3.97
2022-10-12T23:23:54.009Z,3.92
2022-10-12T23:26:22.336Z,4.07
2022-10-12T23:28:49.292Z,3.80
2022-10-12T23:31:17.601Z,4.90
2022-10-12T23:33:44.570Z,3.60
2022-10-12T23:36:13.039Z,4.95
2022-10-12T23:38:40.231Z,4.35
2022-10-12T23:41:07.051Z,4.63
2022-10-12T23:43:33.931Z,8.85
2022-10-12T23:46:00.639Z,4.63
2022-10-12T23:48:27.502Z,5.20
2022-10-12T23:50:54.251Z,3.90
2022-10-12T23:53:21.631Z,4.25
2022-10-12T23:55:48.768Z,3.63
2022-10-12T23:58:15.494Z,4.43
